Time;durP1;ratioP1;P1;durP2;ratioP2;P2;SDS_P1;SDS_P2;PMS_P1;PMS_P2;Temp;Humidity;BMP_temperature;BMP_pressure;BME280_temperature;BME280_humidity;BME280_pressure;Samples;Min_cycle;Max_cycle;Signal;HPM_P1;HPM_P2
2022/07/03 00:00:17;;;;;;;5.55;2.40;;;;;;;16.65;90.11;100908.03;687811;28;1227;-43
2022/07/03 00:00:38;;;;;;;4.30;2.10;;;;;;;16.68;89.51;100915.03;689971;28;1044;-44
2022/07/03 00:00:58;;;;;;;3.47;2.07;;;;;;;16.66;90.10;100916.84;690500;28;1127;-43
2022/07/03 00:01:18;;;;;;;4.10;2.10;;;;;;;16.66;89.94;100917.69;689440;28;1261;-44
2022/07/03 00:01:39;;;;;;;4.63;2.20;;;;;;;16.68;89.59;100915.03;689251;28;4461;-43
2022/07/03 00:02:01;;;;;;;3.85;2.05;;;;;;;16.67;90.86;100918.59;689974;28;1134;-43
2022/07/03 00:02:22;;;;;;;3.60;2.15;;;;;;;16.63;91.27;100912.50;690112;28;1258;-43
2022/07/03 00:02:42;;;;;;;4.05;2.15;;;;;;;16.66;89.86;100915.06;690608;28;1131;-44
2022/07/03 00:03:03;;;;;;;3.90;2.10;;;;;;;16.68;90.59;100909.75;689383;28;1053;-45
2022/07/03 00:03:23;;;;;;;5.15;2.30;;;;;;;16.65;91.04;100908.03;690054;28;1048;-43
2022/07/03 00:03:43;;;;;;;4.13;2.10;;;;;;;16.63;90.19;100912.50;690231;28;1339;-45
2022/07/03 00:04:04;;;;;;;4.45;2.20;;;;;;;16.65;91.42;100913.31;690447;28;1071;-44
2022/07/03 00:04:25;;;;;;;3.93;2.20;;;;;;;16.63;92.69;100909.03;690437;28;1130;-44
2022/07/03 00:04:45;;;;;;;4.80;2.20;;;;;;;16.59;93.24;100905.56;689935;28;4385;-43
2022/07/03 00:05:06;;;;;;;4.67;2.20;;;;;;;16.59;93.09;100910.00;689612;28;1040;-45
2022/07/03 00:05:26;;;;;;;4.95;2.40;;;;;;;16.58;92.88;100914.41;689250;28;1170;-43
2022/07/03 00:05:49;;;;;;;3.85;2.30;;;;;;;16.54;93.36;100907.47;690020;28;1166;-45
2022/07/03 00:06:09;;;;;;;4.13;2.40;;;;;;;16.49;93.79;100911.97;690206;28;1263;-45
2022/07/03 00:06:31;;;;;;;3.92;2.30;;;;;;;16.45;94.17;100908.56;689308;28;1371;-44
2022/07/03 00:06:54;;;;;;;4.32;2.20;;;;;;;16.44;93.12;100905.97;691201;28;1316;-43
2022/07/03 00:07:14;;;;;;;4.30;2.20;;;;;;;16.42;92.86;100905.13;690078;28;1142;-45
2022/07/03 00:07:38;;;;;;;3.90;2.20;;;;;;;16.37;93.29;100905.25;689834;28;1130;-43
2022/07/03 00:07:58;;;;;;;3.78;2.10;;;;;;;16.37;93.45;100912.31;690278;28;5885;-43
2022/07/03 00:08:19;;;;;;;4.20;2.08;;;;;;;16.34;94.08;100902.72;690326;28;1025;-44
2022/07/03 00:08:39;;;;;;;5.53;2.37;;;;;;;16.35;93.01;100904.41;690381;28;1202;-45
2022/07/03 00:09:03;;;;;;;4.75;2.40;;;;;;;16.37;93.03;100904.41;692516;28;1340;-43
2022/07/03 00:09:24;;;;;;;4.70;2.10;;;;;;;16.39;93.16;100905.22;692376;28;1095;-45
2022/07/03 00:09:45;;;;;;;4.33;2.10;;;;;;;16.39;92.68;100907.84;693156;28;1274;-44
2022/07/03 00:10:06;;;;;;;4.15;2.10;;;;;;;16.40;92.10;100904.31;692941;28;1180;-44
2022/07/03 00:10:27;;;;;;;3.72;2.05;;;;;;;16.38;94.17;100907.00;693412;28;1170;-45
2022/07/03 00:10:47;;;;;;;4.00;2.00;;;;;;;16.34;94.16;100906.19;692896;28;4491;-44
2022/07/03 00:11:08;;;;;;;4.43;2.03;;;;;;;16.31;93.11;100900.13;690144;28;1418;-44
2022/07/03 00:11:29;;;;;;;3.75;2.05;;;;;;;16.37;92.66;100907.03;690187;28;1151;-44
2022/07/03 00:11:50;;;;;;;4.60;2.00;;;;;;;16.44;92.44;100906.84;689672;28;2116;-46
2022/07/03 00:12:10;;;;;;;3.45;2.08;;;;;;;16.46;93.15;100907.69;690340;28;1032;-45
2022/07/03 00:12:31;;;;;;;3.50;2.10;;;;;;;16.43;94.78;100909.50;687276;28;1466;-44
2022/07/03 00:12:52;;;;;;;4.93;2.17;;;;;;;16.40;94.73;100905.19;688198;28;1056;-43
2022/07/03 00:13:14;;;;;;;4.32;2.10;;;;;;;16.37;94.50;100904.41;689237;28;1189;-46
2022/07/03 00:13:35;;;;;;;4.65;2.15;;;;;;;16.39;93.30;100902.56;690532;28;1087;-43
2022/07/03 00:13:56;;;;;;;3.93;2.00;;;;;;;16.44;92.73;100908.63;689674;28;4539;-43
2022/07/03 00:14:16;;;;;;;5.15;2.08;;;;;;;16.51;91.49;100905.75;690217;28;1060;-45
2022/07/03 00:14:37;;;;;;;4.18;2.30;;;;;;;16.49;91.60;100906.69;690858;28;1071;-43
2022/07/03 00:14:57;;;;;;;3.87;2.10;;;;;;;16.45;91.93;100902.44;690557;28;1198;-46
2022/07/03 00:15:18;;;;;;;4.25;2.22;;;;;;;16.46;90.95;100909.44;689680;28;1059;-44
2022/07/03 00:15:38;;;;;;;4.77;2.27;;;;;;;16.52;90.94;100907.50;690498;28;1233;-44
2022/07/03 00:15:58;;;;;;;3.90;2.30;;;;;;;16.56;90.89;100910.06;690192;28;1083;-45
2022/07/03 00:16:19;;;;;;;4.10;2.27;;;;;;;16.53;91.35;100905.72;690453;28;1308;-44
2022/07/03 00:16:39;;;;;;;4.83;2.20;;;;;;;16.52;91.05;100909.28;689506;28;4858;-44
2022/07/03 00:17:00;;;;;;;4.80;2.00;;;;;;;16.52;90.58;100912.78;689913;28;1506;-45
2022/07/03 00:17:20;;;;;;;3.73;2.07;;;;;;;16.52;90.83;100914.56;689531;28;1212;-43
2022/07/03 00:17:41;;;;;;;3.53;2.30;;;;;;;16.53;90.72;100913.63;690317;28;1154;-44
2022/07/03 00:18:01;;;;;;;3.77;2.07;;;;;;;16.44;91.08;100912.09;690180;28;1079;-44
2022/07/03 00:18:22;;;;;;;5.10;2.30;;;;;;;16.38;91.59;100911.38;689734;28;1145;-44
2022/07/03 00:18:43;;;;;;;4.38;2.10;;;;;;;16.33;92.66;100915.00;690514;28;1190;-45
2022/07/03 00:19:03;;;;;;;3.87;2.10;;;;;;;16.36;91.66;100907.94;690275;28;1102;-43
2022/07/03 00:19:24;;;;;;;4.18;2.20;;;;;;;16.41;91.67;100911.34;690565;28;848;-45
2022/07/03 00:19:44;;;;;;;4.43;2.10;;;;;;;16.41;92.89;100908.69;690328;28;4369;-47
2022/07/03 00:20:05;;;;;;;4.13;2.15;;;;;;;16.37;94.64;100909.69;688979;28;3760;-44
2022/07/03 00:20:30;;;;;;;3.97;2.20;;;;;;;16.34;94.41;100908.84;691081;28;801;-45
2022/07/03 00:21:10;;;;;;;4.32;2.03;;;;;;;16.31;95.06;100921.22;690394;28;1027;-44
2022/07/03 00:21:34;;;;;;;5.03;2.20;;;;;;;16.26;95.26;100912.56;689828;28;959;-44
2022/07/03 00:22:03;;;;;;;4.78;2.30;;;;;;;16.20;96.47;100903.03;690576;28;1610;-45
2022/07/03 00:22:25;;;;;;;4.60;2.10;;;;;;;16.20;96.04;100910.06;689934;28;1015;-45
2022/07/03 00:22:47;;;;;;;4.25;2.30;;;;;;;16.17;95.90;100914.53;689372;28;4426;-45
2022/07/03 00:23:10;;;;;;;3.88;2.30;;;;;;;16.11;95.88;100911.16;689415;28;1960;-43
2022/07/03 00:23:58;;;;;;;4.03;2.30;;;;;;;16.08;95.60;100914.75;689835;28;1002;-44
2022/07/03 00:24:31;;;;;;;4.60;2.10;;;;;;;16.02;95.48;100914.91;681274;28;1324;-44
2022/07/03 00:25:01;;;;;;;4.65;2.20;;;;;;;15.97;95.77;100916.78;691953;28;1060;-44
2022/07/03 00:25:21;;;;;;;3.65;2.20;;;;;;;15.95;95.62;100914.16;692269;28;1250;-45
2022/07/03 00:25:43;;;;;;;4.20;2.20;;;;;;;15.94;96.03;100916.84;692197;28;4607;-44
2022/07/03 00:26:04;;;;;;;4.50;2.30;;;;;;;15.86;95.92;100914.38;692442;28;1304;-45
2022/07/03 00:26:28;;;;;;;4.78;2.22;;;;;;;15.80;96.34;100914.53;689361;28;1463;-44
2022/07/03 00:26:51;;;;;;;3.95;2.22;;;;;;;15.77;96.51;100917.19;687185;28;1223;-43
2022/07/03 00:27:15;;;;;;;3.72;2.28;;;;;;;15.76;97.33;100915.47;687023;28;931;-43
2022/07/03 00:27:37;;;;;;;4.30;2.35;;;;;;;15.74;97.87;100919.88;687775;28;1293;-43
2022/07/03 00:27:58;;;;;;;3.55;2.40;;;;;;;15.74;97.99;100917.25;686911;28;1091;-46
2022/07/03 00:28:19;;;;;;;4.10;2.40;;;;;;;15.78;97.64;100926.81;686416;28;999;-45
2022/07/03 00:28:43;;;;;;;5.03;2.40;;;;;;;15.85;95.92;100923.16;687196;28;4524;-44
2022/07/03 00:29:06;;;;;;;4.60;2.30;;;;;;;15.91;95.43;100915.16;688748;28;1214;-45
2022/07/03 00:29:30;;;;;;;5.18;2.50;;;;;;;15.96;94.55;100915.91;688958;28;1865;-45
2022/07/03 00:29:55;;;;;;;4.38;2.30;;;;;;;15.97;94.26;100915.00;687745;28;1056;-46
2022/07/03 00:30:16;;;;;;;4.47;2.40;;;;;;;15.96;96.01;100920.31;688970;28;978;-46
2022/07/03 00:30:37;;;;;;;3.90;2.10;;;;;;;15.92;97.03;100916.88;687329;28;1272;-45
2022/07/03 00:30:57;;;;;;;3.63;2.20;;;;;;;15.89;96.65;100916.06;686195;28;1036;-45
2022/07/03 00:31:17;;;;;;;4.67;2.40;;;;;;;15.88;97.11;100915.22;688563;28;1215;-46
2022/07/03 00:31:38;;;;;;;4.87;2.37;;;;;;;15.86;96.79;100916.16;688569;28;4676;-45
2022/07/03 00:32:03;;;;;;;6.30;2.58;;;;;;;15.85;96.56;100917.03;690374;28;1109;-45
2022/07/03 00:32:24;;;;;;;6.95;2.38;;;;;;;15.88;95.93;100920.50;690115;28;1083;-46
2022/07/03 00:32:48;;;;;;;4.63;2.40;;;;;;;15.90;95.72;100921.31;693032;28;1755;-45
2022/07/03 00:33:08;;;;;;;3.67;2.20;;;;;;;15.83;97.89;100920.56;687946;28;2059;-44
2022/07/03 00:33:33;;;;;;;3.20;2.00;;;;;;;15.75;97.75;100916.34;684258;28;1041;-45
2022/07/03 00:33:57;;;;;;;3.75;2.10;;;;;;;15.76;97.71;100920.72;682464;28;1236;-44
2022/07/03 00:34:18;;;;;;;3.88;2.08;;;;;;;15.73;97.51;100920.78;682767;28;1404;-46
2022/07/03 00:34:41;;;;;;;4.00;2.22;;;;;;;15.73;97.53;100920.78;683464;28;4330;-44
2022/07/03 00:35:02;;;;;;;3.72;2.40;;;;;;;15.72;98.09;100919.06;685386;28;1096;-45
2022/07/03 00:35:23;;;;;;;4.72;2.35;;;;;;;15.65;98.57;100919.19;690843;28;1135;-44
2022/07/03 00:35:47;;;;;;;4.47;2.28;;;;;;;15.65;97.21;100921.81;693511;28;1213;-44
2022/07/03 00:36:07;;;;;;;4.00;2.20;;;;;;;15.70;97.35;100929.66;689241;28;1230;-44
2022/07/03 00:36:47;;;;;;;4.47;2.22;;;;;;;15.77;97.82;100922.44;688786;28;1234;-46
2022/07/03 00:37:09;;;;;;;3.70;2.25;;;;;;;15.78;96.46;100918.91;687759;28;1171;-44
2022/07/03 00:37:29;;;;;;;4.13;2.38;;;;;;;15.77;96.16;100915.44;687557;28;1481;-44
2022/07/03 00:37:50;;;;;;;3.45;2.20;;;;;;;15.80;95.18;100925.06;687361;28;4513;-43
2022/07/03 00:38:11;;;;;;;4.07;2.20;;;;;;;15.80;97.56;100919.81;690567;28;994;-43
2022/07/03 00:38:32;;;;;;;4.05;2.20;;;;;;;15.79;97.80;100920.66;692730;28;1131;-43
2022/07/03 00:38:53;;;;;;;3.50;2.20;;;;;;;15.78;97.07;100918.91;693551;28;1317;-44
2022/07/03 00:39:14;;;;;;;3.88;2.15;;;;;;;15.86;96.05;100916.16;692903;28;1393;-43
2022/07/03 00:39:40;;;;;;;4.93;2.47;;;;;;;15.90;96.42;100913.41;693315;28;1373;-44
2022/07/03 00:40:01;;;;;;;5.10;2.50;;;;;;;15.89;98.07;100921.34;691305;28;1852;-44
2022/07/03 00:40:21;;;;;;;5.20;2.60;;;;;;;15.87;97.34;100916.13;689688;28;1175;-45
2022/07/03 00:40:41;;;;;;;3.55;2.10;;;;;;;15.88;96.93;100916.97;689945;28;4400;-43
2022/07/03 00:41:03;;;;;;;3.60;2.03;;;;;;;15.90;95.55;100921.31;690508;28;1306;-43
2022/07/03 00:41:29;;;;;;;4.30;2.20;;;;;;;15.89;95.82;100909.03;691056;28;903;-44
2022/07/03 00:42:03;;;;;;;4.13;2.20;;;;;;;15.86;95.74;100910.88;689375;28;938;-44
2022/07/03 00:42:26;;;;;;;4.93;2.28;;;;;;;15.92;95.20;100911.63;689317;28;934;-43
2022/07/03 00:42:51;;;;;;;3.58;2.15;;;;;;;15.86;95.83;100913.53;689423;28;5315;-44
2022/07/03 00:43:15;;;;;;;3.53;2.20;;;;;;;15.73;97.19;100919.03;690053;28;1000;-43
2022/07/03 00:43:36;;;;;;;4.60;2.20;;;;;;;15.65;97.50;100921.81;693444;28;1289;-43
2022/07/03 00:43:57;;;;;;;4.18;2.33;;;;;;;15.57;98.17;100915.84;692699;28;4350;-43
2022/07/03 00:44:18;;;;;;;4.00;2.15;;;;;;;15.52;98.19;100917.72;692895;28;1055;-43
2022/07/03 00:44:51;;;;;;;3.83;2.15;;;;;;;15.43;98.65;100923.19;693085;28;1424;-45
2022/07/03 00:45:15;;;;;;;3.80;2.20;;;;;;;15.37;98.79;100916.28;692135;28;928;-43
2022/07/03 00:45:37;;;;;;;4.82;2.22;;;;;;;15.33;99.44;100920.72;692971;28;1230;-44
2022/07/03 00:46:07;;;;;;;4.75;2.70;;;;;;;15.35;99.73;100919.84;689841;28;1086;-44
2022/07/03 00:46:28;;;;;;;4.38;2.30;;;;;;;15.33;99.27;100922.50;690719;28;1075;-43
2022/07/03 00:46:52;;;;;;;4.38;2.47;;;;;;;15.32;100.00;100918.13;692808;28;4658;-43
2022/07/03 00:47:13;;;;;;;4.07;2.58;;;;;;;15.28;99.72;100922.59;690149;28;1115;-45
2022/07/03 00:47:36;;;;;;;4.20;2.50;;;;;;;15.28;100.00;100914.69;691002;28;1319;-43
2022/07/03 00:47:57;;;;;;;4.20;2.53;;;;;;;15.32;99.56;100912.88;687387;28;1576;-44
2022/07/03 00:48:19;;;;;;;4.25;2.20;;;;;;;15.39;98.98;100918.88;687829;28;1047;-43
2022/07/03 00:48:45;;;;;;;3.80;2.28;;;;;;;15.45;97.97;100909.09;687056;28;1069;-43
2022/07/03 00:49:09;;;;;;;4.20;2.13;;;;;;;15.55;97.49;100915.03;689009;28;1076;-43
2022/07/03 00:49:33;;;;;;;4.38;2.20;;;;;;;15.53;97.62;100916.81;690769;28;1674;-43
2022/07/03 00:49:55;;;;;;;5.25;2.30;;;;;;;15.52;96.68;100915.09;690009;28;4407;-44
2022/07/03 00:50:16;;;;;;;4.85;2.22;;;;;;;15.54;96.48;100918.56;690212;28;1058;-45
2022/07/03 00:50:36;;;;;;;4.95;2.30;;;;;;;15.53;97.73;100911.53;690920;28;1333;-44
2022/07/03 00:50:59;;;;;;;4.53;2.40;;;;;;;15.49;99.04;100917.78;690171;28;1054;-45
2022/07/03 00:51:25;;;;;;;4.10;2.30;;;;;;;15.51;97.95;100918.63;690806;28;1204;-43
2022/07/03 00:51:51;;;;;;;4.45;2.40;;;;;;;15.52;98.82;100920.38;692424;28;1895;-44
2022/07/03 00:52:13;;;;;;;4.72;2.42;;;;;;;15.50;98.84;100916.88;692685;28;1027;-44
2022/07/03 00:52:36;;;;;;;3.70;2.00;;;;;;;15.50;98.57;100922.16;693344;28;1551;-43
2022/07/03 00:52:58;;;;;;;3.70;2.10;;;;;;;15.51;97.51;100916.00;692012;28;5262;-44
2022/07/03 00:53:27;;;;;;;4.13;2.10;;;;;;;15.61;96.45;100919.28;692832;28;1048;-44
2022/07/03 00:53:55;;;;;;;4.30;2.40;;;;;;;15.53;98.07;100916.81;689246;28;1062;-45
2022/07/03 00:54:21;;;;;;;4.30;2.50;;;;;;;15.48;97.80;100918.69;688625;28;1171;-45
2022/07/03 00:54:50;;;;;;;4.15;2.38;;;;;;;15.50;98.01;100912.47;690342;28;1335;-44
2022/07/03 00:55:15;;;;;;;4.57;2.50;;;;;;;15.49;98.79;100915.13;690744;28;1391;-45
2022/07/03 00:55:38;;;;;;;4.13;2.40;;;;;;;15.46;98.75;100915.22;691093;28;1304;-43
2022/07/03 00:56:00;;;;;;;5.40;2.25;;;;;;;15.45;99.11;100918.75;692384;28;4607;-43
2022/07/03 00:56:27;;;;;;;4.50;2.17;;;;;;;15.49;98.15;100917.78;693082;28;1439;-45
2022/07/03 00:56:51;;;;;;;3.75;2.17;;;;;;;15.55;97.66;100914.13;694101;28;1051;-44
2022/07/03 00:57:16;;;;;;;3.70;2.20;;;;;;;15.59;97.25;100911.44;692346;28;1222;-44
2022/07/03 00:57:44;;;;;;;4.03;2.20;;;;;;;15.59;98.36;100910.53;690477;28;1281;-44
2022/07/03 00:58:05;;;;;;;4.22;2.45;;;;;;;15.57;98.84;100915.00;689653;28;1440;-44
2022/07/03 00:58:26;;;;;;;3.45;2.40;;;;;;;15.56;98.50;100914.13;689678;28;943;-43
2022/07/03 00:58:46;;;;;;;4.30;2.45;;;;;;;15.55;97.93;100915.03;687143;28;4455;-45
2022/07/03 00:59:07;;;;;;;5.13;2.43;;;;;;;15.59;97.21;100911.44;687977;28;1052;-44
2022/07/03 00:59:27;;;;;;;4.78;2.38;;;;;;;15.60;96.94;100915.81;687207;28;1001;-44
2022/07/03 00:59:48;;;;;;;4.00;2.43;;;;;;;15.59;97.34;100916.69;687177;28;993;-44
2022/07/03 01:00:09;;;;;;;3.63;2.40;;;;;;;15.59;97.07;100908.78;688337;28;1084;-44
2022/07/03 01:00:30;;;;;;;4.45;2.50;;;;;;;15.61;97.12;100914.88;690153;28;1234;-45
2022/07/03 01:00:53;;;;;;;4.53;2.47;;;;;;;15.63;97.01;100917.47;692640;28;979;-44
2022/07/03 01:01:18;;;;;;;4.28;2.40;;;;;;;15.68;96.25;100920.03;692629;28;1050;-43
2022/07/03 01:01:39;;;;;;;4.13;2.33;;;;;;;15.72;96.44;100913.78;691965;28;4519;-43
2022/07/03 01:02:04;;;;;;;7.28;2.50;;;;;;;15.73;96.20;100913.75;692479;28;1280;-45
2022/07/03 01:02:52;;;;;;;5.30;2.35;;;;;;;15.74;96.22;100912.88;691355;28;1055;-44
2022/07/03 01:03:17;;;;;;;4.63;2.20;;;;;;;15.72;96.20;100911.16;690307;28;1179;-43
2022/07/03 01:03:44;;;;;;;4.60;2.22;;;;;;;15.73;96.40;100910.22;690324;28;1068;-43
2022/07/03 01:04:11;;;;;;;5.72;2.25;;;;;;;15.68;97.08;100915.63;690331;28;1182;-43
2022/07/03 01:04:51;;;;;;;4.05;2.30;;;;;;;15.59;98.05;100903.53;690079;28;1340;-43
2022/07/03 01:05:23;;;;;;;4.18;2.40;;;;;;;15.52;98.74;100901.03;689924;28;4694;-44
2022/07/03 01:05:47;;;;;;;4.70;2.47;;;;;;;15.52;98.76;100907.19;688466;28;1903;-44
2022/07/03 01:06:14;;;;;;;3.72;2.45;;;;;;;15.53;99.10;100908.06;689622;28;1051;-44
2022/07/03 01:06:47;;;;;;;3.60;2.40;;;;;;;15.51;99.85;100902.81;692647;28;1052;-43
2022/07/03 01:07:13;;;;;;;4.75;2.40;;;;;;;15.46;100.00;100905.53;689872;28;1847;-45
2022/07/03 01:08:10;;;;;;;4.30;2.20;;;;;;;15.40;100.00;100900.41;690859;28;871;-46
2022/07/03 01:08:30;;;;;;;4.72;2.50;;;;;;;15.41;100.00;100904.78;689749;28;4724;-43
2022/07/03 01:08:58;;;;;;;4.83;2.57;;;;;;;15.41;100.00;100898.63;686547;28;1095;-44
2022/07/03 01:09:34;;;;;;;4.93;2.50;;;;;;;15.40;100.00;100903.03;691636;28;1139;-43
2022/07/03 01:10:22;;;;;;;4.65;2.40;;;;;;;15.46;99.57;100896.78;689646;28;1879;-44
2022/07/03 01:11:19;;;;;;;4.38;2.20;;;;;;;15.43;100.00;100896.84;691053;28;1880;-44
2022/07/03 01:11:54;;;;;;;4.10;2.27;;;;;;;15.38;100.00;100901.34;691048;28;1924;-43
2022/07/03 01:12:24;;;;;;;5.00;3.00;;;;;;;15.33;100.00;100897.03;691873;28;1032;-43
2022/07/03 01:12:51;;;;;;;4.43;2.67;;;;;;;15.32;100.00;100897.91;692460;28;1446;-44
2022/07/03 01:13:24;;;;;;;4.30;2.38;;;;;;;15.39;100.00;100897.81;691949;28;1277;-44
2022/07/03 01:14:14;;;;;;;3.85;2.33;;;;;;;15.40;99.36;100896.91;691910;28;4305;-43
2022/07/03 01:14:51;;;;;;;5.07;2.40;;;;;;;15.48;97.69;100895.00;690973;28;1044;-44
2022/07/03 01:15:26;;;;;;;4.70;2.53;;;;;;;15.52;99.55;100896.66;690065;28;1195;-44
2022/07/03 01:15:53;;;;;;;3.97;2.20;;;;;;;15.44;100.00;100895.94;690640;28;1476;-44
2022/07/03 01:16:21;;;;;;;4.10;2.33;;;;;;;15.36;100.00;100893.47;689627;28;1476;-44
2022/07/03 01:17:04;;;;;;;4.47;2.42;;;;;;;15.25;100.00;100896.31;689507;28;4297;-43
2022/07/03 01:17:31;;;;;;;3.83;2.60;;;;;;;15.20;100.00;100900.81;690309;28;1012;-44
2022/07/03 01:18:10;;;;;;;3.92;2.70;;;;;;;15.14;100.00;100904.44;690185;28;909;-43
2022/07/03 01:18:48;;;;;;;5.18;2.40;;;;;;;15.11;100.00;100899.22;689391;28;1712;-43
2022/07/03 01:19:33;;;;;;;4.18;2.47;;;;;;;15.02;100.00;100902.03;688906;28;1268;-44
2022/07/03 01:20:01;;;;;;;3.97;2.30;;;;;;;15.07;100.00;100901.97;689737;28;4357;-45
2022/07/03 01:20:28;;;;;;;3.97;2.10;;;;;;;15.14;100.00;100900.94;690017;28;1327;-44
2022/07/03 01:20:54;;;;;;;4.07;2.45;;;;;;;15.07;100.00;100899.34;691040;28;1289;-44
2022/07/03 01:21:25;;;;;;;3.88;2.70;;;;;;;15.08;100.00;100898.44;690791;28;1203;-44
2022/07/03 01:21:48;;;;;;;4.30;2.38;;;;;;;15.15;100.00;100892.16;688934;28;1043;-45
2022/07/03 01:22:23;;;;;;;5.07;2.30;;;;;;;15.15;100.00;100889.50;689647;28;939;-45
2022/07/03 01:22:48;;;;;;;4.50;2.50;;;;;;;15.17;100.00;100892.13;689830;28;4358;-44
2022/07/03 01:23:24;;;;;;;3.80;2.28;;;;;;;15.22;100.00;100891.13;691886;28;1567;-45
2022/07/03 01:24:09;;;;;;;3.78;2.30;;;;;;;15.31;100.00;100890.06;692815;28;1624;-43
2022/07/03 01:24:58;;;;;;;4.03;2.30;;;;;;;15.27;100.00;100884.00;693067;28;939;-43
2022/07/03 01:25:35;;;;;;;4.05;2.42;;;;;;;15.36;100.00;100889.97;681390;28;1334;-43
2022/07/03 01:25:58;;;;;;;6.13;2.60;;;;;;;15.38;99.90;100888.16;690005;28;4501;-44
2022/07/03 01:26:21;;;;;;;6.18;2.80;;;;;;;15.35;100.00;100888.22;689285;28;1366;-43
2022/07/03 01:26:46;;;;;;;5.20;2.40;;;;;;;15.36;99.75;100896.09;691130;28;943;-43
2022/07/03 01:27:10;;;;;;;4.03;2.30;;;;;;;15.36;99.45;100887.34;689463;28;1010;-44
2022/07/03 01:27:55;;;;;;;4.82;2.50;;;;;;;15.30;100.00;100889.19;689823;28;1921;-43
2022/07/03 01:28:19;;;;;;;4.10;2.30;;;;;;;15.37;99.09;100886.41;689576;28;904;-44
2022/07/03 01:28:44;;;;;;;3.95;2.38;;;;;;;15.36;99.38;100887.34;692308;28;4269;-44
2022/07/03 01:29:11;;;;;;;4.10;2.33;;;;;;;15.33;99.18;100888.28;689333;28;1406;-44
2022/07/03 01:30:00;;;;;;;3.55;2.25;;;;;;;15.34;100.00;100884.75;689277;28;1191;-45
2022/07/03 01:30:22;;;;;;;4.97;2.45;;;;;;;15.30;100.00;100890.97;689186;28;1549;-43
2022/07/03 01:30:53;;;;;;;4.45;2.40;;;;;;;15.33;100.00;100894.38;689756;28;1044;-44
2022/07/03 01:31:19;;;;;;;4.30;2.58;;;;;;;15.21;100.00;100889.38;690097;28;1425;-45
2022/07/03 01:31:41;;;;;;;3.85;2.22;;;;;;;15.24;100.00;100889.31;692217;28;4574;-45
2022/07/03 01:32:03;;;;;;;4.85;2.40;;;;;;;15.23;100.00;100882.31;693327;28;1130;-43
2022/07/03 01:32:28;;;;;;;4.95;2.50;;;;;;;15.23;100.00;100890.22;693282;28;1034;-44
2022/07/03 01:32:57;;;;;;;5.25;2.47;;;;;;;15.15;100.00;100890.38;689405;28;1080;-43
2022/07/03 01:33:21;;;;;;;4.72;2.22;;;;;;;15.17;100.00;100887.69;690063;28;2002;-43
2022/07/03 01:33:42;;;;;;;5.03;2.40;;;;;;;15.22;99.93;100885.00;690575;28;973;-44
2022/07/03 01:34:06;;;;;;;4.17;2.23;;;;;;;15.27;100.00;100889.28;690533;28;1477;-44
2022/07/03 01:34:34;;;;;;;4.72;2.47;;;;;;;15.19;100.00;100885.91;690123;28;1436;-44
2022/07/03 01:34:56;;;;;;;5.00;2.70;;;;;;;15.11;100.00;100893.09;690012;28;4315;-43
2022/07/03 01:35:31;;;;;;;4.43;2.50;;;;;;;15.04;100.00;100896.75;689608;28;1837;-45
2022/07/03 01:36:04;;;;;;;4.43;2.47;;;;;;;15.03;100.00;100893.25;690616;28;1102;-43
2022/07/03 01:36:29;;;;;;;5.05;2.70;;;;;;;15.07;100.00;100891.44;690640;28;1044;-44
2022/07/03 01:36:53;;;;;;;5.00;2.50;;;;;;;15.00;100.00;100889.81;690510;28;1095;-46
2022/07/03 01:37:16;;;;;;;4.43;2.50;;;;;;;14.95;100.00;100893.41;690656;28;1731;-44
2022/07/03 01:37:39;;;;;;;4.63;2.63;;;;;;;14.98;100.00;100885.44;691290;28;1286;-45
2022/07/03 01:38:09;;;;;;;4.68;2.80;;;;;;;14.94;100.00;100886.41;691090;28;6339;-45
2022/07/03 01:38:32;;;;;;;6.15;2.60;;;;;;;14.90;100.00;100886.50;691102;28;1243;-44
2022/07/03 01:38:55;;;;;;;4.60;2.60;;;;;;;14.86;100.00;100885.69;689925;28;1021;-43
2022/07/03 01:39:21;;;;;;;4.18;2.70;;;;;;;14.81;100.00;100885.78;690412;28;2197;-44
2022/07/03 01:39:44;;;;;;;3.70;2.50;;;;;;;14.81;100.00;100883.16;690368;28;1304;-45
2022/07/03 01:40:05;;;;;;;4.20;2.63;;;;;;;14.85;100.00;100891.84;689878;28;1486;-45
2022/07/03 01:40:26;;;;;;;4.28;2.60;;;;;;;14.88;100.00;100886.50;691094;28;955;-44
2022/07/03 01:40:49;;;;;;;5.05;2.75;;;;;;;14.87;100.00;100884.78;690599;28;4390;-44
2022/07/03 01:41:11;;;;;;;3.45;2.40;;;;;;;14.89;100.00;100887.41;690043;28;1010;-44
2022/07/03 01:41:31;;;;;;;3.95;2.70;;;;;;;14.91;100.00;100883.84;690130;28;1029;-44
2022/07/03 01:41:55;;;;;;;4.43;2.43;;;;;;;14.96;100.00;100884.59;693911;28;904;-43
2022/07/03 01:42:17;;;;;;;4.30;2.50;;;;;;;15.04;100.00;100888.88;693692;28;1059;-43
2022/07/03 01:42:41;;;;;;;4.28;2.63;;;;;;;15.06;100.00;100887.06;692604;28;4782;-45
2022/07/03 01:43:05;;;;;;;4.75;2.65;;;;;;;14.95;100.00;100885.50;693434;28;970;-43
2022/07/03 01:43:32;;;;;;;4.22;2.50;;;;;;;14.98;100.00;100890.72;692038;28;1186;-44
2022/07/03 01:43:57;;;;;;;3.78;2.25;;;;;;;15.01;100.00;100883.63;692629;28;4325;-44
2022/07/03 01:44:21;;;;;;;4.57;2.60;;;;;;;14.96;100.00;100884.59;693537;28;915;-44
2022/07/03 01:44:43;;;;;;;4.15;2.50;;;;;;;14.89;100.00;100888.25;693373;28;974;-44
2022/07/03 01:45:05;;;;;;;3.92;2.50;;;;;;;14.85;100.00;100888.34;690815;28;1154;-44
2022/07/03 01:45:28;;;;;;;5.20;2.72;;;;;;;14.82;100.00;100889.28;690180;28;833;-43
2022/07/03 01:45:50;;;;;;;4.80;2.70;;;;;;;14.81;100.00;100884.91;688621;28;1180;-44
2022/07/03 01:46:12;;;;;;;5.75;2.55;;;;;;;14.84;100.00;100890.09;687444;28;1176;-43
2022/07/03 01:46:33;;;;;;;5.43;2.42;;;;;;;14.88;100.00;100890.91;687779;28;1375;-44
2022/07/03 01:46:57;;;;;;;4.57;2.60;;;;;;;14.93;100.00;100884.66;684387;28;4348;-44
2022/07/03 01:47:18;;;;;;;4.35;2.30;;;;;;;14.99;100.00;100881.03;685212;28;1174;-44
2022/07/03 01:47:45;;;;;;;3.88;2.40;;;;;;;15.04;100.00;100887.09;688769;28;1076;-44
2022/07/03 01:48:07;;;;;;;3.42;2.42;;;;;;;15.08;100.00;100890.53;690151;28;1550;-45
2022/07/03 01:48:30;;;;;;;4.20;2.55;;;;;;;15.01;100.00;100881.91;687472;28;1741;-43
2022/07/03 01:48:51;;;;;;;4.60;2.60;;;;;;;14.93;100.00;100878.53;689313;28;1059;-43
2022/07/03 01:49:14;;;;;;;3.75;2.40;;;;;;;14.87;100.00;100882.16;690316;28;1026;-43
2022/07/03 01:49:35;;;;;;;4.38;2.60;;;;;;;14.83;100.00;100880.47;690422;28;1151;-43
2022/07/03 01:49:56;;;;;;;6.03;2.77;;;;;;;14.82;100.00;100886.63;689737;28;4706;-43
2022/07/03 01:50:16;;;;;;;4.30;2.78;;;;;;;14.87;100.00;100882.16;691067;28;1425;-43
2022/07/03 01:50:38;;;;;;;5.37;2.60;;;;;;;14.89;100.00;100882.13;690861;28;1047;-43
2022/07/03 01:51:00;;;;;;;5.13;2.75;;;;;;;14.82;100.00;100878.75;691159;28;1083;-44
2022/07/03 01:51:23;;;;;;;5.00;2.55;;;;;;;14.86;100.00;100883.06;689816;28;1234;-44
2022/07/03 01:51:43;;;;;;;6.20;2.47;;;;;;;14.91;100.00;100872.44;690617;28;1898;-45
2022/07/03 01:52:05;;;;;;;5.80;2.70;;;;;;;14.98;100.00;100874.03;692853;28;1071;-43
2022/07/03 01:52:27;;;;;;;4.82;2.53;;;;;;;15.02;100.00;100877.47;693415;28;1559;-44
2022/07/03 01:52:48;;;;;;;4.78;2.60;;;;;;;15.02;100.00;100870.44;693460;28;4353;-44
2022/07/03 01:53:11;;;;;;;4.50;2.70;;;;;;;15.02;100.00;100878.34;691078;28;1203;-43
2022/07/03 01:53:31;;;;;;;4.32;2.72;;;;;;;15.02;100.00;100877.47;692836;28;1569;-44
2022/07/03 01:53:53;;;;;;;4.53;2.60;;;;;;;15.06;100.00;100874.75;692591;28;1039;-43
2022/07/03 01:54:14;;;;;;;4.13;2.50;;;;;;;15.07;100.00;100873.84;691047;28;1091;-45
2022/07/03 01:54:36;;;;;;;3.95;2.53;;;;;;;15.07;100.00;100873.00;691818;28;1329;-44
2022/07/03 01:55:01;;;;;;;4.00;2.67;;;;;;;14.98;100.00;100876.66;691000;28;1153;-43
2022/07/03 01:55:22;;;;;;;4.13;2.70;;;;;;;14.92;100.00;100871.53;689850;28;1074;-44
2022/07/03 01:55:43;;;;;;;3.67;2.50;;;;;;;14.93;100.00;100879.41;689318;28;4470;-44
2022/07/03 01:56:05;;;;;;;5.80;2.83;;;;;;;14.94;100.00;100875.88;688143;28;1623;-43
2022/07/03 01:56:28;;;;;;;5.85;2.63;;;;;;;14.92;100.00;100871.53;684726;28;1239;-45
2022/07/03 01:56:48;;;;;;;4.18;2.75;;;;;;;14.90;100.00;100873.34;685702;28;1633;-45
2022/07/03 01:57:09;;;;;;;4.32;2.80;;;;;;;14.85;100.00;100870.78;685753;28;1248;-44
2022/07/03 01:57:40;;;;;;;4.60;2.80;;;;;;;14.85;100.00;100872.56;686238;28;1218;-43